Time;durP1;ratioP1;P1;durP2;ratioP2;P2;SDS_P1;SDS_P2;PMS_P1;PMS_P2;Temp;Humidity;BMP_temperature;BMP_pressure;BME280_temperature;BME280_humidity;BME280_pressure;Samples;Min_cycle;Max_cycle;Signal;HPM_P1;HPM_P2
2024/03/22 00:01:39;;;;;;;33.90;18.77;;;;;;;5.72;59.00;101858.16;5026518;28;20487;-70
2024/03/22 00:04:08;;;;;;;32.95;17.15;;;;;;;6.19;58.01;101844.06;5028020;28;20037;-72
2024/03/22 00:06:33;;;;;;;33.65;18.05;;;;;;;5.87;58.68;101846.84;5029454;28;20035;-72
2024/03/22 00:08:59;;;;;;;36.83;17.95;;;;;;;6.24;57.57;101844.06;5026914;28;20033;-70
2024/03/22 00:11:24;;;;;;;30.35;16.92;;;;;;;6.44;57.34;101850.03;5038260;28;20051;-68
2024/03/22 00:13:50;;;;;;;34.25;18.25;;;;;;;6.19;58.28;101841.47;5023182;28;20650;-69
2024/03/22 00:16:16;;;;;;;32.83;18.35;;;;;;;5.91;59.16;101821.78;5031271;28;20032;-70
2024/03/22 00:18:42;;;;;;;34.80;17.58;;;;;;;5.70;59.38;101808.00;5021707;28;20053;-68
2024/03/22 00:21:07;;;;;;;32.13;17.38;;;;;;;6.28;58.16;101812.03;5029881;28;20029;-73
2024/03/22 00:23:34;;;;;;;31.05;16.05;;;;;;;5.77;59.50;101808.84;5026745;28;20041;-71
2024/03/22 00:25:59;;;;;;;33.40;18.00;;;;;;;5.57;60.13;101801.16;5018595;28;20028;-69
2024/03/22 00:28:25;;;;;;;35.38;17.45;;;;;;;5.64;60.23;101777.78;5028613;28;20408;-69
2024/03/22 00:30:50;;;;;;;36.00;17.48;;;;;;;5.43;61.08;101780.47;5032450;28;20082;-70
2024/03/22 00:33:15;;;;;;;28.58;15.98;;;;;;;5.89;59.64;101767.28;5026127;28;20519;-70
2024/03/22 00:35:41;;;;;;;33.78;17.92;;;;;;;6.05;59.13;101770.63;5028020;28;20558;-69
2024/03/22 00:38:06;;;;;;;30.60;17.15;;;;;;;5.82;59.91;101773.38;5031844;28;20047;-69
2024/03/22 00:40:33;;;;;;;32.28;16.95;;;;;;;5.74;59.69;101764.78;5027002;28;20139;-69
2024/03/22 00:42:58;;;;;;;32.67;16.10;;;;;;;5.94;59.49;101764.66;5027690;28;20044;-69
2024/03/22 00:45:24;;;;;;;29.45;16.65;;;;;;;6.08;59.51;101748.13;5025667;28;20039;-69
2024/03/22 00:47:49;;;;;;;26.48;16.38;;;;;;;5.98;59.31;101750.78;5026987;28;20044;-70
2024/03/22 00:50:15;;;;;;;31.30;16.20;;;;;;;5.74;60.42;101749.22;5029391;28;20040;-71
2024/03/22 00:52:41;;;;;;;31.35;15.85;;;;;;;5.81;60.46;101754.34;5025262;28;20098;-71
2024/03/22 00:55:07;;;;;;;28.02;15.85;;;;;;;5.93;60.23;101748.22;5031657;28;20090;-71
2024/03/22 00:57:33;;;;;;;31.25;17.05;;;;;;;5.80;60.36;101752.63;5025924;28;20485;-72
2024/03/22 00:59:58;;;;;;;29.90;16.48;;;;;;;5.70;60.58;101744.91;5027740;28;21474;-71
2024/03/22 01:02:24;;;;;;;32.95;17.50;;;;;;;5.91;60.09;101737.00;5026515;28;20128;-71
2024/03/22 01:04:49;;;;;;;34.53;17.55;;;;;;;5.56;61.20;101737.19;5041079;28;20054;-72
2024/03/22 01:07:15;;;;;;;26.58;15.95;;;;;;;5.80;61.02;101744.00;5013109;28;20041;-71
2024/03/22 01:09:44;;;;;;;34.90;18.63;;;;;;;5.77;60.75;101744.88;5024146;28;20663;-72
2024/03/22 01:12:10;;;;;;;32.05;17.17;;;;;;;6.22;59.72;101735.03;5027999;28;20033;-72
2024/03/22 01:14:35;;;;;;;27.95;16.73;;;;;;;6.44;59.29;101730.56;5030063;28;20028;-71
2024/03/22 01:17:01;;;;;;;30.52;16.60;;;;;;;5.85;61.18;101730.09;5023531;28;20079;-70
2024/03/22 01:19:26;;;;;;;28.55;15.73;;;;;;;6.01;61.38;101736.03;5035510;28;20547;-71
2024/03/22 01:21:52;;;;;;;32.35;17.05;;;;;;;5.96;60.92;101717.06;5026574;28;20233;-72
2024/03/22 01:24:17;;;;;;;32.83;17.05;;;;;;;5.36;63.11;101708.78;5031413;28;20033;-71
2024/03/22 01:26:43;;;;;;;33.28;18.42;;;;;;;5.61;61.90;101689.63;5023956;28;20469;-71
2024/03/22 01:29:08;;;;;;;33.50;17.30;;;;;;;5.19;63.49;101680.34;5043493;28;20062;-71
2024/03/22 01:31:34;;;;;;;34.85;19.00;;;;;;;5.45;62.69;101698.34;5029984;28;20430;-70
2024/03/22 01:33:59;;;;;;;36.13;17.58;;;;;;;5.90;61.64;101685.97;5023803;28;20880;-70
2024/03/22 01:36:25;;;;;;;34.28;18.60;;;;;;;5.77;62.40;101686.91;5036267;28;20545;-71
2024/03/22 01:38:50;;;;;;;37.35;17.15;;;;;;;5.52;62.41;101674.09;5023689;28;21017;-72
2024/03/22 01:41:16;;;;;;;32.92;16.50;;;;;;;5.84;62.07;101676.50;5030280;28;20667;-71
2024/03/22 01:43:41;;;;;;;30.98;16.98;;;;;;;6.01;61.53;101668.56;5023693;28;20923;-71
2024/03/22 01:46:07;;;;;;;41.97;18.58;;;;;;;5.48;63.04;101669.84;5030896;28;20379;-70
2024/03/22 01:48:34;;;;;;;38.45;19.38;;;;;;;5.88;61.66;101665.22;5024668;28;20052;-71
2024/03/22 01:51:00;;;;;;;39.47;18.88;;;;;;;5.79;62.49;101667.00;5025434;28;20037;-70
2024/03/22 01:53:26;;;;;;;41.88;20.90;;;;;;;5.89;62.12;101668.69;5028183;28;20110;-69
2024/03/22 01:55:51;;;;;;;33.22;18.83;;;;;;;6.04;61.44;101665.13;5023818;28;20480;-71
2024/03/22 01:58:18;;;;;;;34.45;18.27;;;;;;;6.22;61.22;101667.53;5029463;28;20155;-70
2024/03/22 02:00:44;;;;;;;34.55;18.73;;;;;;;6.21;61.16;101664.94;5022509;28;21145;-72
2024/03/22 02:03:09;;;;;;;37.25;17.92;;;;;;;5.95;61.51;101679.03;5036007;28;20070;-73
2024/03/22 02:05:35;;;;;;;37.45;19.77;;;;;;;6.05;61.46;101667.69;5026827;28;20033;-73
2024/03/22 02:08:00;;;;;;;36.03;18.50;;;;;;;6.51;60.17;101669.03;5024278;28;20040;-67
2024/03/22 02:10:26;;;;;;;38.22;20.17;;;;;;;6.46;60.37;101656.09;5026890;28;20036;-68
2024/03/22 02:12:52;;;;;;;37.58;18.98;;;;;;;6.19;61.01;101667.53;5031462;28;20044;-68
2024/03/22 02:15:17;;;;;;;31.00;17.60;;;;;;;6.27;60.93;101664.91;5027622;28;20029;-68
2024/03/22 02:17:43;;;;;;;35.00;19.08;;;;;;;6.52;59.99;101664.69;5028133;28;20039;-68
2024/03/22 02:20:10;;;;;;;41.10;18.80;;;;;;;6.74;59.21;101666.19;5034301;28;20501;-68
2024/03/22 02:22:35;;;;;;;36.42;19.35;;;;;;;6.68;59.40;101663.63;5025859;28;20033;-68
2024/03/22 02:25:01;;;;;;;42.80;20.45;;;;;;;6.47;60.10;101657.81;5033310;28;20609;-71
2024/03/22 02:27:28;;;;;;;42.42;18.45;;;;;;;7.19;57.87;101652.63;5026324;28;20039;-71
2024/03/22 02:29:54;;;;;;;35.53;20.55;;;;;;;6.43;60.07;101655.25;5033611;28;20433;-70
2024/03/22 02:32:19;;;;;;;34.42;18.67;;;;;;;6.85;59.58;101648.72;5026128;28;20044;-70
2024/03/22 02:34:45;;;;;;;40.88;19.70;;;;;;;6.62;59.95;101640.31;5024766;28;20044;-72
2024/03/22 02:37:11;;;;;;;37.47;20.33;;;;;;;6.75;59.75;101638.44;5031392;28;20048;-70
2024/03/22 02:39:36;;;;;;;36.38;20.42;;;;;;;6.95;58.84;101627.81;5027627;28;20041;-69
2024/03/22 02:42:02;;;;;;;38.70;20.55;;;;;;;6.32;60.74;101624.19;5021439;28;20032;-71
2024/03/22 02:44:27;;;;;;;39.50;19.38;;;;;;;6.48;60.65;101620.59;5030424;28;20024;-71
2024/03/22 02:46:53;;;;;;;35.30;18.10;;;;;;;6.40;60.80;101611.16;5020642;28;20486;-72
2024/03/22 02:49:18;;;;;;;42.13;20.67;;;;;;;6.76;59.77;101616.81;5031573;28;20128;-73
2024/03/22 02:51:43;;;;;;;40.13;19.65;;;;;;;6.75;60.09;101610.72;5028243;28;20186;-71
2024/03/22 02:54:10;;;;;;;43.50;21.77;;;;;;;7.02;59.21;101606.06;5022332;28;20131;-71
2024/03/22 02:56:36;;;;;;;39.35;17.45;;;;;;;6.87;59.37;101602.78;5030832;28;20040;-71
2024/03/22 02:59:01;;;;;;;36.92;19.75;;;;;;;6.94;59.36;101610.53;5027784;28;20095;-70
2024/03/22 03:01:27;;;;;;;44.78;21.00;;;;;;;6.60;59.94;101603.16;5035624;28;20044;-72
2024/03/22 03:03:52;;;;;;;39.17;19.25;;;;;;;6.76;60.06;101602.06;5027135;28;20035;-73
2024/03/22 03:06:19;;;;;;;42.85;20.05;;;;;;;6.12;61.59;101607.94;5034868;28;20570;-70
2024/03/22 03:08:45;;;;;;;46.67;20.13;;;;;;;6.82;59.76;101602.00;5028251;28;20776;-71
2024/03/22 03:11:11;;;;;;;42.45;21.20;;;;;;;6.86;59.49;101595.00;5027764;28;20059;-73
2024/03/22 03:13:36;;;;;;;43.50;20.55;;;;;;;6.96;59.23;101585.38;5009775;28;20127;-73
2024/03/22 03:16:02;;;;;;;42.03;20.05;;;;;;;7.00;59.63;101584.41;5027680;28;20421;-74
2024/03/22 03:18:28;;;;;;;43.97;21.33;;;;;;;6.88;59.88;101581.09;5033962;28;20127;-73
2024/03/22 03:20:53;;;;;;;47.00;20.90;;;;;;;6.69;60.36;101564.91;5025638;28;20656;-74
2024/03/22 03:23:19;;;;;;;39.63;23.08;;;;;;;6.40;61.26;101562.66;5034806;28;20507;-71
2024/03/22 03:25:46;;;;;;;46.63;21.67;;;;;;;6.64;60.66;101550.25;5028637;28;20595;-73
2024/03/22 03:28:12;;;;;;;49.83;22.35;;;;;;;6.98;59.61;101544.63;5030932;28;20045;-75
2024/03/22 03:30:38;;;;;;;47.72;22.02;;;;;;;6.69;60.38;101538.09;5029415;28;20037;-72
2024/03/22 03:33:03;;;;;;;41.58;22.45;;;;;;;6.74;60.45;101536.28;5014339;28;20118;-71
2024/03/22 03:35:29;;;;;;;41.72;20.20;;;;;;;6.49;60.88;101548.72;5029033;28;20794;-71
2024/03/22 03:37:55;;;;;;;42.92;22.35;;;;;;;6.83;60.35;101551.72;5024588;28;20040;-71
2024/03/22 03:40:21;;;;;;;43.55;21.75;;;;;;;6.50;61.16;101556.47;5046348;28;20115;-70
2024/03/22 03:42:47;;;;;;;48.20;23.20;;;;;;;6.62;60.58;101552.88;5032041;28;20955;-74
2024/03/22 03:45:13;;;;;;;45.80;21.55;;;;;;;6.88;60.12;101549.94;5023897;28;20037;-72
2024/03/22 03:47:38;;;;;;;48.55;22.13;;;;;;;7.24;59.40;101546.81;5030779;28;20044;-73
2024/03/22 03:50:04;;;;;;;49.75;23.35;;;;;;;6.52;60.87;101533.09;5029562;28;20111;-75
2024/03/22 03:52:29;;;;;;;56.08;23.35;;;;;;;6.75;60.58;101543.16;5033210;28;21604;-74
2024/03/22 03:54:55;;;;;;;46.97;22.83;;;;;;;6.82;60.50;101534.44;5033691;28;20200;-73
2024/03/22 03:57:20;;;;;;;50.13;23.08;;;;;;;7.01;60.47;101521.19;5012794;28;20039;-73
2024/03/22 03:59:46;;;;;;;49.53;23.67;;;;;;;6.63;61.04;101517.38;5042200;28;20063;-74
2024/03/22 04:02:11;;;;;;;56.40;25.27;;;;;;;6.80;60.97;101528.41;5025195;28;21339;-73
2024/03/22 04:04:36;;;;;;;52.25;22.50;;;;;;;6.99;60.52;101518.59;5040625;28;20089;-74
2024/03/22 04:07:02;;;;;;;52.30;22.63;;;;;;;6.88;60.77;101513.53;5019906;28;20025;-72
2024/03/22 04:09:28;;;;;;;59.72;24.05;;;;;;;6.72;60.90;101509.44;5032750;28;20037;-72
2024/03/22 04:11:53;;;;;;;55.55;24.00;;;;;;;6.99;60.58;101510.78;5023262;28;20044;-72
2024/03/22 04:14:19;;;;;;;49.75;24.08;;;;;;;7.24;59.54;101511.28;5034190;28;20107;-72
2024/03/22 04:16:44;;;;;;;49.65;22.75;;;;;;;7.11;59.87;101510.63;5032531;28;20078;-72
2024/03/22 04:19:10;;;;;;;58.13;25.98;;;;;;;6.79;61.04;101495.50;5025146;27;20044;-73
2024/03/22 04:21:35;;;;;;;56.90;24.02;;;;;;;6.55;61.98;101499.31;5023723;28;20032;-70
2024/03/22 04:24:00;;;;;;;53.00;23.45;;;;;;;6.60;61.92;101502.69;5021697;28;20048;-69
2024/03/22 04:26:26;;;;;;;48.92;22.95;;;;;;;7.17;60.33;101503.59;5031624;28;20036;-70
2024/03/22 04:28:52;;;;;;;55.08;25.40;;;;;;;6.83;60.83;101501.50;5028360;28;20037;-70
2024/03/22 04:31:17;;;;;;;48.55;24.98;;;;;;;6.57;62.21;101501.84;5036290;28;20616;-69
2024/03/22 04:33:43;;;;;;;55.58;24.05;;;;;;;6.95;61.22;101503.91;5026767;28;20044;-70
2024/03/22 04:36:11;;;;;;;52.60;23.02;;;;;;;7.05;61.00;101502.91;5025727;28;20963;-74
2024/03/22 04:38:37;;;;;;;51.00;23.10;;;;;;;7.13;60.52;101502.78;5027419;28;20036;-73
2024/03/22 04:41:02;;;;;;;52.83;24.60;;;;;;;6.99;60.94;101491.75;5009255;28;20074;-72
2024/03/22 04:43:29;;;;;;;54.42;24.92;;;;;;;7.05;60.91;101495.13;5030829;28;20082;-72
2024/03/22 04:45:55;;;;;;;51.67;25.23;;;;;;;6.72;62.13;101480.88;5024294;28;20032;-73
2024/03/22 04:48:22;;;;;;;57.78;25.95;;;;;;;6.97;61.02;101480.50;5028680;28;20044;-70
2024/03/22 04:50:49;;;;;;;57.35;25.08;;;;;;;7.24;60.49;101474.88;5027488;28;20041;-70
2024/03/22 04:53:22;;;;;;;59.55;27.00;;;;;;;7.46;60.26;101464.13;5026893;28;23306;-70
2024/03/22 04:55:48;;;;;;;58.20;26.50;;;;;;;7.19;60.82;101465.44;5027197;28;20546;-70
2024/03/22 04:58:18;;;;;;;54.08;25.10;;;;;;;7.46;60.12;101454.56;5024241;28;20532;-70
2024/03/22 05:00:44;;;;;;;49.90;24.88;;;;;;;7.21;60.38;101458.47;5029289;28;20109;-72
2024/03/22 05:03:10;;;;;;;56.63;24.85;;;;;;;7.40;59.96;101456.41;5015639;28;20495;-73
2024/03/22 05:05:36;;;;;;;53.03;24.17;;;;;;;7.32;60.29;101451.34;5028587;28;20110;-73
2024/03/22 05:08:02;;;;;;;60.28;25.38;;;;;;;7.63;59.53;101441.28;5024798;28;20139;-74
2024/03/22 05:10:31;;;;;;;53.47;26.00;;;;;;;7.57;59.66;101437.94;5014456;28;20189;-73
2024/03/22 05:12:57;;;;;;;53.10;25.05;;;;;;;7.37;60.51;101433.06;5025268;28;20041;-75
2024/03/22 05:15:25;;;;;;;56.70;24.98;;;;;;;7.45;60.21;101421.66;5027732;28;20048;-72
2024/03/22 05:17:51;;;;;;;53.97;25.38;;;;;;;7.12;60.67;101423.09;5027454;28;20041;-72
2024/03/22 05:20:17;;;;;;;65.45;27.17;;;;;;;7.27;60.62;101425.44;5025087;28;20326;-72
2024/03/22 05:22:43;;;;;;;62.60;27.48;;;;;;;7.07;61.55;101427.50;5031891;28;20045;-75
2024/03/22 05:25:09;;;;;;;63.03;25.13;;;;;;;7.44;60.05;101429.47;5023445;28;21413;-72
2024/03/22 05:27:36;;;;;;;58.25;25.20;;;;;;;7.17;60.81;101428.22;5031917;28;20041;-75
2024/03/22 05:30:04;;;;;;;53.50;25.63;;;;;;;7.63;59.45;101425.69;5020023;28;20098;-67
2024/03/22 05:32:29;;;;;;;56.47;27.20;;;;;;;7.51;59.96;101412.84;5035153;28;21086;-76
2024/03/22 05:34:55;;;;;;;53.72;23.92;;;;;;;7.50;60.21;101419.81;5012883;28;20834;-69
2024/03/22 05:37:21;;;;;;;53.60;24.25;;;;;;;7.09;61.02;101439.59;5025629;28;20566;-71
2024/03/22 05:39:46;;;;;;;49.00;23.60;;;;;;;7.51;60.31;101441.47;5031774;28;20049;-71
2024/03/22 05:42:11;;;;;;;60.17;26.48;;;;;;;7.55;60.08;101437.97;5018782;28;20039;-74
2024/03/22 05:44:37;;;;;;;54.75;25.95;;;;;;;7.67;59.60;101429.94;5033195;28;20035;-72
2024/03/22 05:47:02;;;;;;;53.30;25.13;;;;;;;7.60;59.75;101430.97;5021987;28;20422;-75
2024/03/22 05:49:29;;;;;;;55.67;25.98;;;;;;;7.15;61.22;101427.38;5033221;28;20533;-74
2024/03/22 05:51:55;;;;;;;50.60;24.55;;;;;;;7.15;60.88;101425.63;5025788;28;20044;-74
2024/03/22 05:54:20;;;;;;;55.72;24.13;;;;;;;7.52;60.35;101414.59;5025638;28;20387;-71
2024/03/22 05:56:48;;;;;;;52.92;26.27;;;;;;;7.94;58.93;101406.88;5033923;28;20039;-75
2024/03/22 05:59:14;;;;;;;51.97;25.92;;;;;;;7.15;60.94;101407.44;5026884;28;20645;-74
2024/03/22 06:01:39;;;;;;;53.83;26.05;;;;;;;7.27;60.98;101417.63;5031535;28;20036;-72
2024/03/22 06:04:05;;;;;;;69.90;26.80;;;;;;;7.25;61.00;101409.00;5027018;28;20602;-70
2024/03/22 06:06:32;;;;;;;49.88;24.70;;;;;;;7.20;61.08;101405.63;5029909;28;20043;-72
2024/03/22 06:09:00;;;;;;;58.25;25.60;;;;;;;7.25;60.63;101398.59;5025187;28;20059;-72
2024/03/22 06:11:25;;;;;;;58.30;24.23;;;;;;;7.43;60.35;101405.22;5030164;28;20041;-72
2024/03/22 06:13:51;;;;;;;54.50;24.10;;;;;;;7.16;60.89;101403.97;5027249;28;20609;-72
2024/03/22 06:16:16;;;;;;;52.00;25.23;;;;;;;7.11;61.03;101390.19;5013074;28;20036;-72
2024/03/22 06:18:42;;;;;;;58.95;25.52;;;;;;;6.95;62.08;101399.13;5019994;28;20053;-72
2024/03/22 06:21:07;;;;;;;57.63;25.23;;;;;;;7.25;60.57;101390.78;5029802;28;20555;-72
2024/03/22 06:23:34;;;;;;;47.83;22.38;;;;;;;6.78;61.94;101391.59;5028738;28;20101;-75
2024/03/22 06:25:59;;;;;;;54.28;26.42;;;;;;;7.30;60.60;101388.97;5043030;28;20060;-74
2024/03/22 06:28:27;;;;;;;57.65;25.80;;;;;;;7.16;61.50;101383.16;5025973;28;20040;-73
2024/03/22 06:30:53;;;;;;;58.03;26.23;;;;;;;7.24;61.11;101380.41;5028618;28;20181;-72
2024/03/22 06:33:19;;;;;;;55.55;25.95;;;;;;;7.28;60.85;101387.28;5028877;28;20051;-72
2024/03/22 06:35:46;;;;;;;55.85;23.63;;;;;;;7.38;60.37;101372.34;5033559;28;20028;-72
2024/03/22 06:38:12;;;;;;;55.75;26.13;;;;;;;7.19;60.87;101383.09;5026698;28;20163;-73
2024/03/22 06:40:37;;;;;;;57.53;24.75;;;;;;;7.16;61.12;101383.16;5033330;28;20037;-73
2024/03/22 06:43:03;;;;;;;55.47;25.50;;;;;;;7.51;59.99;101368.63;5027735;28;20087;-75
2024/03/22 06:45:29;;;;;;;52.22;23.55;;;;;;;7.57;59.62;101352.09;5030994;28;20032;-73
2024/03/22 06:47:55;;;;;;;55.20;23.58;;;;;;;7.67;59.70;101348.44;5035507;28;20060;-74
2024/03/22 06:50:24;;;;;;;54.03;24.33;;;;;;;7.14;61.27;101348.53;5024665;28;20036;-73
2024/03/22 06:52:51;;;;;;;50.97;23.92;;;;;;;7.14;61.11;101368.47;5034621;28;20036;-73
2024/03/22 06:55:17;;;;;;;60.47;24.00;;;;;;;7.25;61.34;101362.19;5025305;28;20040;-72
2024/03/22 06:57:44;;;;;;;58.53;25.67;;;;;;;6.99;61.96;101369.59;5033023;28;20052;-72
2024/03/22 07:00:11;;;;;;;52.47;22.63;;;;;;;6.95;62.60;101386.13;5027949;28;20463;-75
2024/03/22 07:02:36;;;;;;;56.90;24.70;;;;;;;7.09;62.30;101376.38;5033761;28;20522;-74
2024/03/22 07:05:05;;;;;;;50.08;23.30;;;;;;;6.84;63.23;101378.50;5033593;28;20040;-77
2024/03/22 07:07:31;;;;;;;51.22;22.65;;;;;;;7.09;62.06;101361.63;5033216;28;20056;-75
2024/03/22 07:09:56;;;;;;;55.85;23.95;;;;;;;6.81;63.43;101360.38;5033183;28;20403;-74
2024/03/22 07:12:22;;;;;;;56.50;22.55;;;;;;;6.71;63.88;101375.25;5024652;28;20751;-75
2024/03/22 07:14:47;;;;;;;47.78;21.48;;;;;;;6.91;63.35;101380.97;5036314;28;20058;-71
2024/03/22 07:17:13;;;;;;;52.30;22.20;;;;;;;6.79;63.63;101365.56;5024291;28;20052;-73
2024/03/22 07:19:38;;;;;;;45.60;20.90;;;;;;;7.16;63.13;101371.91;5035785;28;20502;-73
2024/03/22 07:22:04;;;;;;;54.60;22.13;;;;;;;7.19;62.77;101377.91;5029242;28;20490;-77
2024/03/22 07:24:32;;;;;;;48.92;21.70;;;;;;;7.23;62.70;101376.97;5039851;28;20036;-75
2024/03/22 07:26:58;;;;;;;50.03;21.23;;;;;;;6.94;63.73;101367.06;5030441;28;20065;-75
2024/03/22 07:29:23;;;;;;;45.30;21.48;;;;;;;7.06;63.77;101360.81;5028694;28;21015;-74
2024/03/22 07:31:48;;;;;;;48.70;20.38;;;;;;;6.88;63.86;101362.81;5035981;28;20036;-75
2024/03/22 07:34:15;;;;;;;51.25;21.52;;;;;;;6.80;64.13;101369.91;5024354;28;20530;-74
2024/03/22 07:36:40;;;;;;;47.40;20.80;;;;;;;6.67;64.66;101363.19;5038273;28;20604;-73
2024/03/22 07:39:07;;;;;;;48.65;19.90;;;;;;;7.07;63.73;101345.19;5022917;28;20040;-74
2024/03/22 07:41:33;;;;;;;51.63;20.00;;;;;;;6.84;64.65;101350.78;5036840;28;20121;-75
2024/03/22 07:44:00;;;;;;;45.25;19.58;;;;;;;7.30;62.91;101354.31;5029682;28;20106;-75
2024/03/22 07:46:26;;;;;;;37.25;16.88;;;;;;;6.40;65.44;101354.94;5028651;28;20047;-75
2024/03/22 07:48:52;;;;;;;46.17;19.05;;;;;;;6.50;65.64;101366.88;5030681;28;20627;-75
2024/03/22 07:51:17;;;;;;;41.80;18.92;;;;;;;6.60;65.25;101364.19;5011467;28;20552;-72
2024/03/22 07:53:44;;;;;;;42.60;16.95;;;;;;;7.03;64.57;101366.06;5030217;28;20041;-73
2024/03/22 07:56:09;;;;;;;39.13;17.13;;;;;;;6.86;64.46;101358.53;5026387;28;20021;-77
2024/03/22 07:58:34;;;;;;;39.08;17.50;;;;;;;6.57;65.54;101366.81;5031038;28;20548;-72
2024/03/22 08:01:00;;;;;;;32.90;14.70;;;;;;;6.59;65.76;101360.69;5034701;28;20102;-76
2024/03/22 08:03:26;;;;;;;29.77;14.70;;;;;;;7.05;64.40;101365.16;5033668;28;20119;-76
2024/03/22 08:05:51;;;;;;;32.30;13.98;;;;;;;6.62;65.28;101358.06;5031317;28;20021;-71
2024/03/22 08:08:17;;;;;;;27.10;14.70;;;;;;;6.31;66.85;101368.06;5024459;28;20040;-73
2024/03/22 08:10:43;;;;;;;34.67;15.20;;;;;;;7.07;63.99;101352.13;5031834;28;20063;-74
2024/03/22 08:13:08;;;;;;;32.28;14.15;;;;;;;6.94;64.83;101353.22;5031890;28;20040;-74
2024/03/22 08:15:35;;;;;;;29.60;12.00;;;;;;;6.77;65.18;101343.97;5029508;28;20089;-74
2024/03/22 08:18:03;;;;;;;35.08;13.98;;;;;;;6.76;65.16;101341.41;5033539;28;20039;-75
2024/03/22 08:20:30;;;;;;;23.55;11.98;;;;;;;6.58;66.38;101342.56;5015958;28;20032;-75
2024/03/22 08:22:55;;;;;;;23.92;11.75;;;;;;;6.76;65.09;101350.06;5034049;28;20029;-74
2024/03/22 08:25:22;;;;;;;22.60;10.60;;;;;;;6.41;65.82;101356.66;5026099;28;20047;-74
2024/03/22 08:27:48;;;;;;;30.60;12.27;;;;;;;6.86;64.54;101351.63;5035379;28;20040;-73
2024/03/22 08:30:14;;;;;;;21.27;9.18;;;;;;;6.67;64.75;101345.00;5024978;28;20016;-73
2024/03/22 08:32:40;;;;;;;17.27;9.77;;;;;;;6.92;63.93;101350.66;5033858;28;20048;-71
2024/03/22 08:35:06;;;;;;;21.83;9.63;;;;;;;6.71;64.44;101349.28;5026429;28;20078;-72
2024/03/22 08:37:33;;;;;;;19.67;9.15;;;;;;;6.61;64.48;101342.50;5024414;28;20409;-71
2024/03/22 08:39:59;;;;;;;19.35;8.48;;;;;;;6.48;65.15;101347.03;5036376;28;20120;-73
2024/03/22 08:42:24;;;;;;;14.95;7.63;;;;;;;6.55;64.93;101333.09;5022933;28;20139;-71
2024/03/22 08:44:49;;;;;;;14.85;8.20;;;;;;;6.69;64.96;101345.84;5032654;28;20115;-71
2024/03/22 08:47:15;;;;;;;16.98;6.93;;;;;;;7.05;63.61;101343.50;5023064;28;20040;-71
2024/03/22 08:49:43;;;;;;;15.82;8.02;;;;;;;6.59;64.93;101339.91;5033787;28;20103;-70
2024/03/22 08:52:09;;;;;;;16.92;7.70;;;;;;;6.42;65.24;101331.56;5029903;28;20027;-73
2024/03/22 08:54:34;;;;;;;13.20;6.75;;;;;;;6.63;64.81;101327.75;5025265;28;20412;-73
2024/03/22 08:57:00;;;;;;;15.77;8.43;;;;;;;6.47;65.13;101325.41;5028425;28;20039;-71
2024/03/22 08:59:26;;;;;;;12.07;6.65;;;;;;;6.55;65.62;101327.00;5025462;28;20075;-71
2024/03/22 09:01:51;;;;;;;14.32;6.60;;;;;;;6.80;64.99;101330.94;5030665;28;20029;-71
2024/03/22 09:04:17;;;;;;;13.10;6.45;;;;;;;6.62;65.24;101339.00;5024936;28;20666;-71
2024/03/22 09:06:42;;;;;;;12.68;6.63;;;;;;;6.62;65.15;101344.19;5031535;28;20395;-73
2024/03/22 09:09:08;;;;;;;11.57;6.78;;;;;;;7.16;63.52;101345.91;5027667;28;20048;-71
2024/03/22 09:11:34;;;;;;;10.13;5.50;;;;;;;7.21;63.31;101352.72;5023091;28;21053;-71
2024/03/22 09:13:59;;;;;;;8.98;4.65;;;;;;;6.74;64.80;101348.38;5029423;28;20458;-69
2024/03/22 09:16:25;;;;;;;13.02;6.45;;;;;;;7.01;64.26;101345.28;5024941;28;20029;-69
2024/03/22 09:18:51;;;;;;;6.90;4.22;;;;;;;6.58;65.26;101339.97;5029421;28;20626;-70
2024/03/22 09:21:16;;;;;;;7.53;4.50;;;;;;;6.93;64.15;101334.16;5026505;28;20046;-70
2024/03/22 09:23:42;;;;;;;6.10;3.58;;;;;;;6.75;64.26;101330.13;5019034;28;20041;-70
2024/03/22 09:26:07;;;;;;;5.53;3.17;;;;;;;6.72;64.47;101335.41;5033671;28;20548;-70
2024/03/22 09:28:32;;;;;;;8.32;2.95;;;;;;;6.65;65.32;101333.78;5021627;28;20053;-70
2024/03/22 09:31:02;;;;;;;7.63;2.72;;;;;;;7.09;63.76;101339.97;5031852;28;20025;-69
2024/03/22 09:33:28;;;;;;;4.78;2.38;;;;;;;6.77;64.32;101335.31;5024997;28;20055;-70
2024/03/22 09:35:54;;;;;;;4.68;2.47;;;;;;;6.83;63.42;101333.47;5028689;28;20029;-69
2024/03/22 09:38:19;;;;;;;6.10;2.35;;;;;;;7.01;63.35;101344.44;5023438;28;20045;-71
2024/03/22 09:40:46;;;;;;;4.50;2.17;;;;;;;6.69;64.44;101341.50;5030557;28;20041;-70
2024/03/22 09:43:18;;;;;;;4.13;2.25;;;;;;;6.97;63.72;101342.78;5030589;28;20517;-70
2024/03/22 09:45:44;;;;;;;4.40;2.35;;;;;;;6.72;64.24;101335.41;5029943;28;20132;-70
2024/03/22 09:48:10;;;;;;;6.45;2.05;;;;;;;6.38;65.29;101335.94;5031049;28;21155;-70
2024/03/22 09:50:36;;;;;;;4.57;2.42;;;;;;;6.75;64.48;101334.47;5020386;28;21366;-70
2024/03/22 09:53:03;;;;;;;3.17;1.77;;;;;;;6.80;63.89;101332.69;5029943;28;20044;-70
2024/03/22 09:55:30;;;;;;;6.00;1.80;;;;;;;6.57;64.76;101330.44;5027069;28;20064;-70
2024/03/22 09:57:56;;;;;;;4.00;2.63;;;;;;;6.91;64.36;101326.41;5027764;28;20036;-71
2024/03/22 10:00:24;;;;;;;3.15;1.65;;;;;;;6.85;64.03;101331.72;5019074;28;20462;-70
2024/03/22 10:02:50;;;;;;;2.95;1.48;;;;;;;6.96;63.82;101321.13;5034823;28;20036;-70
2024/03/22 10:05:17;;;;;;;2.47;1.58;;;;;;;7.07;63.30;101326.16;5027459;28;20048;-70
2024/03/22 10:07:43;;;;;;;2.80;1.30;;;;;;;6.73;63.89;101326.72;5021632;28;20041;-70
2024/03/22 10:10:10;;;;;;;3.35;2.17;;;;;;;6.54;64.56;101331.34;5030149;28;20029;-70
2024/03/22 10:12:36;;;;;;;4.63;2.20;;;;;;;6.94;63.73;101340.25;5029118;28;20073;-70
2024/03/22 10:15:02;;;;;;;3.08;1.80;;;;;;;6.86;63.34;101336.03;5030974;28;20037;-70
2024/03/22 10:17:29;;;;;;;3.28;2.00;;;;;;;7.10;62.82;101331.28;5021065;28;20115;-71
2024/03/22 10:19:54;;;;;;;2.53;1.52;;;;;;;7.06;63.14;101330.47;5031384;28;20041;-71
2024/03/22 10:22:20;;;;;;;4.53;2.08;;;;;;;7.16;62.77;101338.13;5022928;28;20040;-71
2024/03/22 10:24:45;;;;;;;4.40;1.10;;;;;;;6.96;62.99;101331.53;5027220;28;20021;-71
2024/03/22 10:27:11;;;;;;;3.60;1.40;;;;;;;7.25;62.49;101340.53;5027728;28;20147;-70
2024/03/22 10:29:37;;;;;;;2.22;1.33;;;;;;;7.26;62.65;101337.91;5023541;28;20572;-70
2024/03/22 10:32:02;;;;;;;4.63;1.80;;;;;;;7.06;63.20;101335.66;5029631;28;20059;-70
2024/03/22 10:34:28;;;;;;;5.05;1.83;;;;;;;6.29;65.09;101336.06;5026226;28;20116;-70
2024/03/22 10:37:03;;;;;;;5.43;1.55;;;;;;;7.17;63.40;101337.22;5027293;28;20037;-70
2024/03/22 10:39:30;;;;;;;1.83;0.90;;;;;;;6.78;63.81;101327.50;5023517;28;20040;-71
2024/03/22 10:41:55;;;;;;;3.67;1.55;;;;;;;6.82;63.91;101323.97;5028588;28;20037;-71
2024/03/22 10:44:21;;;;;;;2.03;1.08;;;;;;;7.03;63.33;101330.53;5030072;28;20037;-71
2024/03/22 10:46:49;;;;;;;4.47;1.10;;;;;;;6.77;63.70;101328.38;5033379;28;20029;-70
2024/03/22 10:49:22;;;;;;;1.85;0.95;;;;;;;7.28;62.77;101325.72;5026860;28;20067;-71
2024/03/22 10:51:54;;;;;;;5.40;0.98;;;;;;;7.58;62.35;101318.25;5029897;28;20036;-71
2024/03/22 10:54:24;;;;;;;1.85;1.60;;;;;;;7.58;61.34;101327.78;5029714;28;20036;-70
2024/03/22 10:56:54;;;;;;;1.38;0.80;;;;;;;7.48;61.94;101314.94;5026749;28;20770;-71
2024/03/22 10:59:19;;;;;;;1.88;0.88;;;;;;;7.48;61.87;101320.13;5028740;28;20151;-71
2024/03/22 11:01:46;;;;;;;3.42;0.82;;;;;;;7.18;62.67;101321.59;5021754;28;20086;-71
2024/03/22 11:04:11;;;;;;;1.35;0.75;;;;;;;7.33;62.54;101316.13;5024818;28;20037;-70
2024/03/22 11:06:37;;;;;;;1.65;1.17;;;;;;;7.71;61.80;101318.84;5021632;28;20043;-70
2024/03/22 11:09:06;;;;;;;2.08;0.50;;;;;;;7.53;62.12;101314.84;5023944;28;20098;-71
2024/03/22 11:11:36;;;;;;;2.35;0.90;;;;;;;7.00;62.15;101312.41;5029690;28;20036;-71
2024/03/22 11:14:05;;;;;;;1.98;0.57;;;;;;;7.42;62.16;101314.19;5027894;28;20638;-71
2024/03/22 11:16:30;;;;;;;2.17;0.50;;;;;;;7.60;61.40;101318.22;5023230;28;20024;-71